sensor_id;sensor_type;location;lat;lon;timestamp;P1;durP1;ratioP1;P2;durP2;ratioP2
12784;SDS011;6456;42.680;23.260;2023-05-16T00:00:15;18.30;;;14.47;;
12784;SDS011;6456;42.680;23.260;2023-05-16T00:02:42;15.33;;;13.60;;
12784;SDS011;6456;42.680;23.260;2023-05-16T00:05:10;17.17;;;14.23;;
12784;SDS011;6456;42.680;23.260;2023-05-16T00:07:40;15.10;;;13.17;;
12784;SDS011;6456;42.680;23.260;2023-05-16T00:10:08;15.77;;;14.17;;
12784;SDS011;6456;42.680;23.260;2023-05-16T00:12:35;14.90;;;13.00;;
12784;SDS011;6456;42.680;23.260;2023-05-16T00:15:04;17.43;;;14.23;;
12784;SDS011;6456;42.680;23.260;2023-05-16T00:17:33;16.30;;;13.17;;
12784;SDS011;6456;42.680;23.260;2023-05-16T00:20:00;15.20;;;13.70;;
12784;SDS011;6456;42.680;23.260;2023-05-16T00:22:34;17.43;;;14.40;;
12784;SDS011;6456;42.680;23.260;2023-05-16T00:25:01;17.03;;;14.37;;
12784;SDS011;6456;42.680;23.260;2023-05-16T00:27:28;17.30;;;14.77;;
12784;SDS011;6456;42.680;23.260;2023-05-16T00:29:55;18.13;;;15.07;;
12784;SDS011;6456;42.680;23.260;2023-05-16T00:32:22;16.67;;;14.53;;
12784;SDS011;6456;42.680;23.260;2023-05-16T00:34:49;20.10;;;14.63;;
12784;SDS011;6456;42.680;23.260;2023-05-16T00:37:16;16.27;;;14.57;;
12784;SDS011;6456;42.680;23.260;2023-05-16T00:39:45;16.17;;;13.37;;
12784;SDS011;6456;42.680;23.260;2023-05-16T00:42:11;16.87;;;14.23;;
12784;SDS011;6456;42.680;23.260;2023-05-16T00:44:39;15.03;;;13.13;;
12784;SDS011;6456;42.680;23.260;2023-05-16T00:47:06;15.27;;;13.77;;
12784;SDS011;6456;42.680;23.260;2023-05-16T00:49:33;16.57;;;14.00;;
12784;SDS011;6456;42.680;23.260;2023-05-16T00:52:00;16.13;;;13.53;;
12784;SDS011;6456;42.680;23.260;2023-05-16T00:54:27;15.53;;;13.87;;
12784;SDS011;6456;42.680;23.260;2023-05-16T00:56:57;15.13;;;13.50;;
12784;SDS011;6456;42.680;23.260;2023-05-16T00:59:25;15.03;;;13.50;;
12784;SDS011;6456;42.680;23.260;2023-05-16T01:01:54;17.70;;;14.90;;
12784;SDS011;6456;42.680;23.260;2023-05-16T01:04:21;15.63;;;13.97;;
12784;SDS011;6456;42.680;23.260;2023-05-16T01:06:48;17.87;;;15.00;;
12784;SDS011;6456;42.680;23.260;2023-05-16T01:09:18;17.77;;;14.47;;
12784;SDS011;6456;42.680;23.260;2023-05-16T01:11:47;18.60;;;15.40;;
12784;SDS011;6456;42.680;23.260;2023-05-16T01:14:23;17.23;;;15.07;;
12784;SDS011;6456;42.680;23.260;2023-05-16T01:16:57;16.40;;;14.80;;
12784;SDS011;6456;42.680;23.260;2023-05-16T01:19:31;20.93;;;15.73;;
12784;SDS011;6456;42.680;23.260;2023-05-16T01:22:19;17.23;;;15.43;;
12784;SDS011;6456;42.680;23.260;2023-05-16T01:25:00;17.43;;;15.43;;
12784;SDS011;6456;42.680;23.260;2023-05-16T01:27:32;18.13;;;15.37;;
12784;SDS011;6456;42.680;23.260;2023-05-16T01:30:10;19.53;;;15.57;;
12784;SDS011;6456;42.680;23.260;2023-05-16T01:32:39;20.57;;;16.27;;
12784;SDS011;6456;42.680;23.260;2023-05-16T01:35:07;18.43;;;15.37;;
12784;SDS011;6456;42.680;23.260;2023-05-16T01:37:39;17.00;;;15.10;;
12784;SDS011;6456;42.680;23.260;2023-05-16T01:40:11;17.83;;;15.77;;
12784;SDS011;6456;42.680;23.260;2023-05-16T01:42:45;19.00;;;16.40;;
12784;SDS011;6456;42.680;23.260;2023-05-16T01:45:17;17.40;;;15.07;;
12784;SDS011;6456;42.680;23.260;2023-05-16T01:47:50;18.00;;;16.17;;
12784;SDS011;6456;42.680;23.260;2023-05-16T01:50:24;18.73;;;15.93;;
12784;SDS011;6456;42.680;23.260;2023-05-16T01:52:55;17.97;;;15.70;;
12784;SDS011;6456;42.680;23.260;2023-05-16T01:55:28;17.30;;;15.53;;
12784;SDS011;6456;42.680;23.260;2023-05-16T01:58:02;18.77;;;16.00;;
12784;SDS011;6456;42.680;23.260;2023-05-16T02:00:30;18.27;;;16.40;;
12784;SDS011;6456;42.680;23.260;2023-05-16T02:02:57;17.73;;;15.53;;
12784;SDS011;6456;42.680;23.260;2023-05-16T02:05:24;17.07;;;15.27;;
12784;SDS011;6456;42.680;23.260;2023-05-16T02:07:51;18.43;;;16.47;;
12784;SDS011;6456;42.680;23.260;2023-05-16T02:10:18;19.40;;;15.93;;
12784;SDS011;6456;42.680;23.260;2023-05-16T02:12:45;17.63;;;15.93;;
12784;SDS011;6456;42.680;23.260;2023-05-16T02:15:14;20.27;;;16.27;;
12784;SDS011;6456;42.680;23.260;2023-05-16T02:17:40;18.43;;;16.20;;
12784;SDS011;6456;42.680;23.260;2023-05-16T02:20:08;17.97;;;16.07;;
12784;SDS011;6456;42.680;23.260;2023-05-16T02:22:35;16.87;;;15.07;;
12784;SDS011;6456;42.680;23.260;2023-05-16T02:25:03;17.37;;;15.73;;
12784;SDS011;6456;42.680;23.260;2023-05-16T02:27:31;17.67;;;15.97;;
12784;SDS011;6456;42.680;23.260;2023-05-16T02:29:58;18.40;;;16.33;;
12784;SDS011;6456;42.680;23.260;2023-05-16T02:32:26;17.23;;;15.40;;
12784;SDS011;6456;42.680;23.260;2023-05-16T02:34:53;17.40;;;15.63;;
12784;SDS011;6456;42.680;23.260;2023-05-16T02:37:20;17.20;;;15.40;;
12784;SDS011;6456;42.680;23.260;2023-05-16T02:39:47;17.40;;;15.47;;
12784;SDS011;6456;42.680;23.260;2023-05-16T02:42:14;17.27;;;15.50;;
12784;SDS011;6456;42.680;23.260;2023-05-16T02:44:41;18.67;;;16.47;;
12784;SDS011;6456;42.680;23.260;2023-05-16T02:47:08;18.33;;;16.07;;
12784;SDS011;6456;42.680;23.260;2023-05-16T02:49:36;17.90;;;15.20;;
12784;SDS011;6456;42.680;23.260;2023-05-16T02:52:03;17.83;;;16.13;;
12784;SDS011;6456;42.680;23.260;2023-05-16T02:54:31;17.47;;;15.67;;
12784;SDS011;6456;42.680;23.260;2023-05-16T02:56:58;17.13;;;15.43;;
12784;SDS011;6456;42.680;23.260;2023-05-16T02:59:25;17.77;;;15.97;;
12784;SDS011;6456;42.680;23.260;2023-05-16T03:01:53;18.53;;;15.83;;
12784;SDS011;6456;42.680;23.260;2023-05-16T03:04:20;16.57;;;14.77;;
12784;SDS011;6456;42.680;23.260;2023-05-16T03:06:49;17.20;;;15.40;;
12784;SDS011;6456;42.680;23.260;2023-05-16T03:09:16;17.37;;;15.57;;
12784;SDS011;6456;42.680;23.260;2023-05-16T03:11:43;16.40;;;14.70;;
12784;SDS011;6456;42.680;23.260;2023-05-16T03:14:10;19.77;;;16.20;;
12784;SDS011;6456;42.680;23.260;2023-05-16T03:16:37;17.73;;;15.90;;
12784;SDS011;6456;42.680;23.260;2023-05-16T03:19:05;16.63;;;14.93;;
12784;SDS011;6456;42.680;23.260;2023-05-16T03:21:35;19.47;;;14.73;;
12784;SDS011;6456;42.680;23.260;2023-05-16T03:24:03;16.93;;;15.23;;
12784;SDS011;6456;42.680;23.260;2023-05-16T03:26:30;16.60;;;14.73;;
12784;SDS011;6456;42.680;23.260;2023-05-16T03:28:57;18.10;;;15.40;;
12784;SDS011;6456;42.680;23.260;2023-05-16T03:31:24;16.17;;;14.60;;
12784;SDS011;6456;42.680;23.260;2023-05-16T03:33:51;16.13;;;14.43;;
12784;SDS011;6456;42.680;23.260;2023-05-16T03:36:19;17.03;;;15.23;;
12784;SDS011;6456;42.680;23.260;2023-05-16T03:38:46;17.97;;;15.10;;
12784;SDS011;6456;42.680;23.260;2023-05-16T03:41:15;17.13;;;15.37;;
12784;SDS011;6456;42.680;23.260;2023-05-16T03:43:42;16.23;;;14.53;;
12784;SDS011;6456;42.680;23.260;2023-05-16T03:46:08;16.60;;;14.83;;
12784;SDS011;6456;42.680;23.260;2023-05-16T03:48:35;18.30;;;15.40;;
12784;SDS011;6456;42.680;23.260;2023-05-16T03:51:02;17.40;;;14.93;;
12784;SDS011;6456;42.680;23.260;2023-05-16T03:53:29;17.70;;;14.97;;
12784;SDS011;6456;42.680;23.260;2023-05-16T03:55:56;16.73;;;14.93;;
12784;SDS011;6456;42.680;23.260;2023-05-16T03:58:24;19.27;;;15.30;;
12784;SDS011;6456;42.680;23.260;2023-05-16T04:00:51;16.70;;;15.07;;
12784;SDS011;6456;42.680;23.260;2023-05-16T04:03:18;16.80;;;15.10;;
12784;SDS011;6456;42.680;23.260;2023-05-16T04:05:45;16.67;;;14.67;;
12784;SDS011;6456;42.680;23.260;2023-05-16T04:08:11;17.83;;;15.00;;
12784;SDS011;6456;42.680;23.260;2023-05-16T04:10:38;20.20;;;16.87;;
12784;SDS011;6456;42.680;23.260;2023-05-16T04:13:05;18.40;;;16.03;;
12784;SDS011;6456;42.680;23.260;2023-05-16T04:15:33;19.17;;;15.83;;
12784;SDS011;6456;42.680;23.260;2023-05-16T04:18:00;20.10;;;15.93;;
12784;SDS011;6456;42.680;23.260;2023-05-16T04:20:27;20.83;;;16.43;;
12784;SDS011;6456;42.680;23.260;2023-05-16T04:22:54;17.77;;;15.87;;
12784;SDS011;6456;42.680;23.260;2023-05-16T04:25:21;23.80;;;16.30;;
12784;SDS011;6456;42.680;23.260;2023-05-16T04:27:49;18.13;;;16.27;;
12784;SDS011;6456;42.680;23.260;2023-05-16T04:30:16;18.57;;;16.73;;
12784;SDS011;6456;42.680;23.260;2023-05-16T04:32:45;19.20;;;15.97;;
12784;SDS011;6456;42.680;23.260;2023-05-16T04:35:11;18.87;;;16.90;;
12784;SDS011;6456;42.680;23.260;2023-05-16T04:37:38;22.50;;;17.87;;
12784;SDS011;6456;42.680;23.260;2023-05-16T04:40:05;23.90;;;17.53;;
12784;SDS011;6456;42.680;23.260;2023-05-16T04:42:34;22.13;;;17.73;;
12784;SDS011;6456;42.680;23.260;2023-05-16T04:45:01;23.57;;;17.83;;
12784;SDS011;6456;42.680;23.260;2023-05-16T04:47:31;26.47;;;18.07;;
12784;SDS011;6456;42.680;23.260;2023-05-16T04:50:02;30.23;;;17.43;;
12784;SDS011;6456;42.680;23.260;2023-05-16T04:52:30;28.77;;;18.53;;
12784;SDS011;6456;42.680;23.260;2023-05-16T04:54:57;22.67;;;17.73;;
12784;SDS011;6456;42.680;23.260;2023-05-16T04:57:24;26.60;;;16.67;;
12784;SDS011;6456;42.680;23.260;2023-05-16T04:59:52;20.50;;;17.33;;
12784;SDS011;6456;42.680;23.260;2023-05-16T05:02:22;18.17;;;16.20;;
12784;SDS011;6456;42.680;23.260;2023-05-16T05:04:51;23.40;;;17.03;;
12784;SDS011;6456;42.680;23.260;2023-05-16T05:07:20;20.40;;;17.17;;
12784;SDS011;6456;42.680;23.260;2023-05-16T05:09:46;21.33;;;16.67;;
12784;SDS011;6456;42.680;23.260;2023-05-16T05:12:13;22.17;;;17.77;;
12784;SDS011;6456;42.680;23.260;2023-05-16T05:14:40;25.97;;;17.67;;
12784;SDS011;6456;42.680;23.260;2023-05-16T05:17:07;19.63;;;17.40;;
12784;SDS011;6456;42.680;23.260;2023-05-16T05:19:33;22.70;;;18.20;;
12784;SDS011;6456;42.680;23.260;2023-05-16T05:22:00;20.83;;;18.63;;
12784;SDS011;6456;42.680;23.260;2023-05-16T05:24:28;27.50;;;19.47;;
12784;SDS011;6456;42.680;23.260;2023-05-16T05:26:55;31.10;;;20.00;;
12784;SDS011;6456;42.680;23.260;2023-05-16T05:29:22;25.63;;;19.13;;
12784;SDS011;6456;42.680;23.260;2023-05-16T05:31:49;23.90;;;17.93;;
12784;SDS011;6456;42.680;23.260;2023-05-16T05:34:16;24.23;;;18.97;;
12784;SDS011;6456;42.680;23.260;2023-05-16T05:36:42;21.50;;;18.53;;
12784;SDS011;6456;42.680;23.260;2023-05-16T05:39:09;20.07;;;17.97;;
12784;SDS011;6456;42.680;23.260;2023-05-16T05:41:37;22.83;;;18.37;;
12784;SDS011;6456;42.680;23.260;2023-05-16T05:44:05;24.73;;;17.53;;
12784;SDS011;6456;42.680;23.260;2023-05-16T05:46:32;24.13;;;16.00;;
12784;SDS011;6456;42.680;23.260;2023-05-16T05:48:59;19.50;;;16.33;;
12784;SDS011;6456;42.680;23.260;2023-05-16T05:51:26;18.23;;;14.90;;
12784;SDS011;6456;42.680;23.260;2023-05-16T05:53:53;16.77;;;14.60;;
12784;SDS011;6456;42.680;23.260;2023-05-16T05:56:20;16.23;;;13.63;;
12784;SDS011;6456;42.680;23.260;2023-05-16T05:58:50;16.80;;;13.57;;
12784;SDS011;6456;42.680;23.260;2023-05-16T06:01:17;14.50;;;12.63;;
12784;SDS011;6456;42.680;23.260;2023-05-16T06:03:45;16.00;;;13.00;;
12784;SDS011;6456;42.680;23.260;2023-05-16T06:06:12;16.73;;;13.53;;
12784;SDS011;6456;42.680;23.260;2023-05-16T06:08:40;17.03;;;13.50;;
12784;SDS011;6456;42.680;23.260;2023-05-16T06:11:07;14.33;;;12.83;;
12784;SDS011;6456;42.680;23.260;2023-05-16T06:13:34;14.00;;;11.77;;
12784;SDS011;6456;42.680;23.260;2023-05-16T06:16:02;17.07;;;12.33;;
12784;SDS011;6456;42.680;23.260;2023-05-16T06:18:29;14.07;;;12.40;;
12784;SDS011;6456;42.680;23.260;2023-05-16T06:20:56;13.67;;;11.57;;
12784;SDS011;6456;42.680;23.260;2023-05-16T06:23:23;18.90;;;12.63;;
12784;SDS011;6456;42.680;23.260;2023-05-16T06:25:50;17.30;;;12.60;;
12784;SDS011;6456;42.680;23.260;2023-05-16T06:28:16;21.40;;;12.63;;
12784;SDS011;6456;42.680;23.260;2023-05-16T06:30:43;20.40;;;12.70;;
12784;SDS011;6456;42.680;23.260;2023-05-16T06:33:13;17.17;;;13.00;;
12784;SDS011;6456;42.680;23.260;2023-05-16T06:35:40;20.97;;;11.90;;
12784;SDS011;6456;42.680;23.260;2023-05-16T06:38:07;13.50;;;10.70;;
12784;SDS011;6456;42.680;23.260;2023-05-16T06:40:33;12.07;;;10.17;;
12784;SDS011;6456;42.680;23.260;2023-05-16T06:43:01;13.37;;;9.70;;
12784;SDS011;6456;42.680;23.260;2023-05-16T06:45:28;12.33;;;9.63;;
12784;SDS011;6456;42.680;23.260;2023-05-16T06:47:55;14.90;;;9.20;;
12784;SDS011;6456;42.680;23.260;2023-05-16T06:50:23;15.27;;;8.47;;
12784;SDS011;6456;42.680;23.260;2023-05-16T06:52:50;8.43;;;7.60;;
12784;SDS011;6456;42.680;23.260;2023-05-16T06:55:19;14.17;;;7.70;;
12784;SDS011;6456;42.680;23.260;2023-05-16T06:57:46;8.53;;;7.17;;
12784;SDS011;6456;42.680;23.260;2023-05-16T07:00:13;10.47;;;7.23;;
12784;SDS011;6456;42.680;23.260;2023-05-16T07:02:41;15.40;;;7.60;;
12784;SDS011;6456;42.680;23.260;2023-05-16T07:05:07;11.93;;;8.03;;
12784;SDS011;6456;42.680;23.260;2023-05-16T07:07:36;14.13;;;7.30;;
12784;SDS011;6456;42.680;23.260;2023-05-16T07:10:03;10.17;;;7.47;;
12784;SDS011;6456;42.680;23.260;2023-05-16T07:12:30;13.90;;;8.43;;
12784;SDS011;6456;42.680;23.260;2023-05-16T07:14:57;8.70;;;7.20;;
12784;SDS011;6456;42.680;23.260;2023-05-16T07:17:24;11.23;;;8.23;;
12784;SDS011;6456;42.680;23.260;2023-05-16T07:19:51;10.13;;;7.30;;
12784;SDS011;6456;42.680;23.260;2023-05-16T07:22:18;13.77;;;6.93;;
12784;SDS011;6456;42.680;23.260;2023-05-16T07:24:46;18.33;;;8.00;;
12784;SDS011;6456;42.680;23.260;2023-05-16T07:27:13;13.17;;;7.30;;
12784;SDS011;6456;42.680;23.260;2023-05-16T07:29:40;8.60;;;7.13;;
12784;SDS011;6456;42.680;23.260;2023-05-16T07:32:07;13.27;;;7.43;;
12784;SDS011;6456;42.680;23.260;2023-05-16T07:34:34;8.80;;;6.73;;
12784;SDS011;6456;42.680;23.260;2023-05-16T07:37:00;16.70;;;8.33;;
12784;SDS011;6456;42.680;23.260;2023-05-16T07:39:27;8.97;;;7.77;;
12784;SDS011;6456;42.680;23.260;2023-05-16T07:41:55;9.03;;;7.57;;
12784;SDS011;6456;42.680;23.260;2023-05-16T07:44:22;12.43;;;7.93;;
12784;SDS011;6456;42.680;23.260;2023-05-16T07:46:49;13.40;;;8.07;;
12784;SDS011;6456;42.680;23.260;2023-05-16T07:49:15;11.53;;;7.67;;
12784;SDS011;6456;42.680;23.260;2023-05-16T07:51:42;9.47;;;7.60;;
12784;SDS011;6456;42.680;23.260;2023-05-16T07:54:09;9.40;;;8.17;;
12784;SDS011;6456;42.680;23.260;2023-05-16T07:56:36;11.10;;;8.30;;
12784;SDS011;6456;42.680;23.260;2023-05-16T07:59:05;8.83;;;7.93;;
12784;SDS011;6456;42.680;23.260;2023-05-16T08:01:32;13.03;;;8.00;;
12784;SDS011;6456;42.680;23.260;2023-05-16T08:03:58;14.30;;;8.03;;
12784;SDS011;6456;42.680;23.260;2023-05-16T08:06:25;13.47;;;8.27;;
12784;SDS011;6456;42.680;23.260;2023-05-16T08:08:53;11.63;;;7.87;;
12784;SDS011;6456;42.680;23.260;2023-05-16T08:11:20;9.17;;;7.70;;
12784;SDS011;6456;42.680;23.260;2023-05-16T08:13:47;12.30;;;8.17;;
12784;SDS011;6456;42.680;23.260;2023-05-16T08:16:16;19.60;;;8.73;;
12784;SDS011;6456;42.680;23.260;2023-05-16T08:18:43;15.53;;;8.50;;
12784;SDS011;6456;42.680;23.260;2023-05-16T08:21:09;18.50;;;8.23;;
12784;SDS011;6456;42.680;23.260;2023-05-16T08:23:38;10.87;;;8.33;;
12784;SDS011;6456;42.680;23.260;2023-05-16T08:26:04;8.73;;;7.63;;
12784;SDS011;6456;42.680;23.260;2023-05-16T08:28:32;22.90;;;8.73;;
12784;SDS011;6456;42.680;23.260;2023-05-16T08:30:58;10.93;;;7.47;;
12784;SDS011;6456;42.680;23.260;2023-05-16T08:33:27;13.17;;;7.77;;
12784;SDS011;6456;42.680;23.260;2023-05-16T08:35:54;10.60;;;7.70;;
12784;SDS011;6456;42.680;23.260;2023-05-16T08:38:20;12.67;;;7.80;;
12784;SDS011;6456;42.680;23.260;2023-05-16T08:40:47;8.90;;;7.80;;
12784;SDS011;6456;42.680;23.260;2023-05-16T08:43:14;10.77;;;7.07;;
12784;SDS011;6456;42.680;23.260;2023-05-16T08:45:41;13.20;;;7.00;;
12784;SDS011;6456;42.680;23.260;2023-05-16T08:48:09;12.70;;;9.47;;
12784;SDS011;6456;42.680;23.260;2023-05-16T08:50:38;9.23;;;7.23;;
12784;SDS011;6456;42.680;23.260;2023-05-16T08:53:06;13.97;;;6.83;;
12784;SDS011;6456;42.680;23.260;2023-05-16T08:55:35;9.63;;;6.90;;
12784;SDS011;6456;42.680;23.260;2023-05-16T08:58:03;15.47;;;6.50;;
12784;SDS011;6456;42.680;23.260;2023-05-16T09:00:30;12.37;;;6.67;;
12784;SDS011;6456;42.680;23.260;2023-05-16T09:02:57;8.30;;;6.37;;
12784;SDS011;6456;42.680;23.260;2023-05-16T09:05:25;13.57;;;6.60;;
12784;SDS011;6456;42.680;23.260;2023-05-16T09:07:56;8.00;;;6.32;;
12784;SDS011;6456;42.680;23.260;2023-05-16T09:10:23;12.55;;;6.80;;
12784;SDS011;6456;42.680;23.260;2023-05-16T09:12:50;22.85;;;8.00;;
12784;SDS011;6456;42.680;23.260;2023-05-16T09:15:18;36.35;;;8.73;;
12784;SDS011;6456;42.680;23.260;2023-05-16T09:17:45;16.08;;;7.75;;
12784;SDS011;6456;42.680;23.260;2023-05-16T09:20:13;8.65;;;6.10;;
12784;SDS011;6456;42.680;23.260;2023-05-16T09:22:48;8.23;;;6.22;;
12784;SDS011;6456;42.680;23.260;2023-05-16T09:25:19;8.93;;;6.10;;
12784;SDS011;6456;42.680;23.260;2023-05-16T09:27:46;15.45;;;6.80;;
12784;SDS011;6456;42.680;23.260;2023-05-16T09:30:13;11.52;;;6.15;;
12784;SDS011;6456;42.680;23.260;2023-05-16T09:32:42;9.00;;;6.25;;
12784;SDS011;6456;42.680;23.260;2023-05-16T09:35:10;11.93;;;5.97;;
12784;SDS011;6456;42.680;23.260;2023-05-16T09:37:42;8.48;;;6.05;;
12784;SDS011;6456;42.680;23.260;2023-05-16T09:40:10;6.35;;;5.55;;
12784;SDS011;6456;42.680;23.260;2023-05-16T09:42:39;9.13;;;7.15;;
12784;SDS011;6456;42.680;23.260;2023-05-16T09:45:06;8.25;;;6.10;;
12784;SDS011;6456;42.680;23.260;2023-05-16T09:47:37;8.32;;;6.13;;
12784;SDS011;6456;42.680;23.260;2023-05-16T09:50:10;7.57;;;6.70;;
12784;SDS011;6456;42.680;23.260;2023-05-16T09:52:39;9.63;;;6.25;;
12784;SDS011;6456;42.680;23.260;2023-05-16T09:55:06;13.63;;;9.57;;
12784;SDS011;6456;42.680;23.260;2023-05-16T09:57:35;20.50;;;9.98;;
12784;SDS011;6456;42.680;23.260;2023-05-16T10:00:06;13.73;;;7.85;;
12784;SDS011;6456;42.680;23.260;2023-05-16T10:02:36;11.90;;;7.97;;
12784;SDS011;6456;42.680;23.260;2023-05-16T10:05:03;16.33;;;7.88;;
12784;SDS011;6456;42.680;23.260;2023-05-16T10:07:31;15.88;;;9.15;;
12784;SDS011;6456;42.680;23.260;2023-05-16T10:09:59;14.57;;;7.70;;
12784;SDS011;6456;42.680;23.260;2023-05-16T10:12:28;10.65;;;6.93;;
12784;SDS011;6456;42.680;23.260;2023-05-16T10:14:56;8.45;;;6.50;;
12784;SDS011;6456;42.680;23.260;2023-05-16T10:17:25;16.50;;;7.60;;
12784;SDS011;6456;42.680;23.260;2023-05-16T10:19:56;13.82;;;7.38;;
12784;SDS011;6456;42.680;23.260;2023-05-16T10:22:23;11.50;;;7.15;;
12784;SDS011;6456;42.680;23.260;2023-05-16T10:24:54;17.20;;;8.23;;
12784;SDS011;6456;42.680;23.260;2023-05-16T10:27:26;16.40;;;7.63;;
12784;SDS011;6456;42.680;23.260;2023-05-16T10:29:53;19.25;;;8.10;;
12784;SDS011;6456;42.680;23.260;2023-05-16T10:32:22;10.65;;;6.95;;
12784;SDS011;6456;42.680;23.260;2023-05-16T10:34:51;24.55;;;8.45;;
12784;SDS011;6456;42.680;23.260;2023-05-16T10:37:20;14.95;;;7.78;;
12784;SDS011;6456;42.680;23.260;2023-05-16T10:39:47;17.13;;;8.07;;
12784;SDS011;6456;42.680;23.260;2023-05-16T10:42:16;17.02;;;7.15;;
12784;SDS011;6456;42.680;23.260;2023-05-16T10:44:44;8.95;;;6.80;;
12784;SDS011;6456;42.680;23.260;2023-05-16T10:47:11;22.30;;;8.95;;
12784;SDS011;6456;42.680;23.260;2023-05-16T10:49:43;13.70;;;7.47;;
12784;SDS011;6456;42.680;23.260;2023-05-16T10:52:12;12.07;;;7.55;;
12784;SDS011;6456;42.680;23.260;2023-05-16T10:54:42;10.38;;;7.20;;
12784;SDS011;6456;42.680;23.260;2023-05-16T10:57:15;12.00;;;7.68;;
12784;SDS011;6456;42.680;23.260;2023-05-16T10:59:45;9.45;;;7.65;;
12784;SDS011;6456;42.680;23.260;2023-05-16T11:02:23;10.67;;;7.30;;
12784;SDS011;6456;42.680;23.260;2023-05-16T11:04:51;11.32;;;7.15;;
12784;SDS011;6456;42.680;23.260;2023-05-16T11:07:22;11.15;;;7.10;;
12784;SDS011;6456;42.680;23.260;2023-05-16T11:09:52;10.40;;;7.28;;
12784;SDS011;6456;42.680;23.260;2023-05-16T11:12:35;16.65;;;7.90;;
12784;SDS011;6456;42.680;23.260;2023-05-16T11:15:06;11.63;;;7.13;;
12784;SDS011;6456;42.680;23.260;2023-05-16T11:17:46;10.60;;;7.40;;
12784;SDS011;6456;42.680;23.260;2023-05-16T11:20:25;13.68;;;7.88;;
12784;SDS011;6456;42.680;23.260;2023-05-16T11:25:50;16.15;;;8.02;;
12784;SDS011;6456;42.680;23.260;2023-05-16T11:28:19;11.45;;;7.38;;
12784;SDS011;6456;42.680;23.260;2023-05-16T11:30:49;8.23;;;7.38;;
12784;SDS011;6456;42.680;23.260;2023-05-16T11:33:19;11.70;;;8.00;;
12784;SDS011;6456;42.680;23.260;2023-05-16T11:35:58;15.30;;;8.20;;
12784;SDS011;6456;42.680;23.260;2023-05-16T11:38:30;13.48;;;9.90;;
12784;SDS011;6456;42.680;23.260;2023-05-16T11:41:00;23.67;;;8.32;;
12784;SDS011;6456;42.680;23.260;2023-05-16T11:43:36;14.45;;;8.98;;
12784;SDS011;6456;42.680;23.260;2023-05-16T11:46:03;10.40;;;8.43;;
12784;SDS011;6456;42.680;23.260;2023-05-16T11:48:30;9.57;;;7.95;;
12784;SDS011;6456;42.680;23.260;2023-05-16T11:50:57;14.73;;;7.43;;
12784;SDS011;6456;42.680;23.260;2023-05-16T11:53:24;14.47;;;7.90;;
12784;SDS011;6456;42.680;23.260;2023-05-16T11:55:54;13.33;;;7.20;;
12784;SDS011;6456;42.680;23.260;2023-05-16T11:58:24;15.63;;;8.18;;
12784;SDS011;6456;42.680;23.260;2023-05-16T12:00:51;15.88;;;8.05;;
12784;SDS011;6456;42.680;23.260;2023-05-16T12:03:19;9.80;;;7.43;;
12784;SDS011;6456;42.680;23.260;2023-05-16T12:05:50;17.67;;;9.40;;
12784;SDS011;6456;42.680;23.260;2023-05-16T12:08:18;13.45;;;9.10;;
12784;SDS011;6456;42.680;23.260;2023-05-16T12:10:47;12.23;;;9.65;;
12784;SDS011;6456;42.680;23.260;2023-05-16T12:13:16;16.17;;;9.75;;
12784;SDS011;6456;42.680;23.260;2023-05-16T12:15:45;15.05;;;9.90;;
12784;SDS011;6456;42.680;23.260;2023-05-16T12:18:14;13.95;;;11.82;;
12784;SDS011;6456;42.680;23.260;2023-05-16T12:20:41;13.77;;;11.07;;
12784;SDS011;6456;42.680;23.260;2023-05-16T12:23:09;12.18;;;9.32;;
12784;SDS011;6456;42.680;23.260;2023-05-16T12:25:39;12.52;;;9.25;;
12784;SDS011;6456;42.680;23.260;2023-05-16T12:28:16;10.50;;;8.55;;
12784;SDS011;6456;42.680;23.260;2023-05-16T12:30:43;11.13;;;9.02;;
12784;SDS011;6456;42.680;23.260;2023-05-16T12:33:12;13.50;;;9.65;;
12784;SDS011;6456;42.680;23.260;2023-05-16T12:35:43;10.68;;;8.98;;
12784;SDS011;6456;42.680;23.260;2023-05-16T12:38:14;14.52;;;9.82;;
12784;SDS011;6456;42.680;23.260;2023-05-16T12:40:41;12.65;;;10.25;;
12784;SDS011;6456;42.680;23.260;2023-05-16T12:43:12;17.30;;;9.82;;
12784;SDS011;6456;42.680;23.260;2023-05-16T12:45:42;17.05;;;9.65;;
12784;SDS011;6456;42.680;23.260;2023-05-16T12:48:16;13.10;;;9.05;;
12784;SDS011;6456;42.680;23.260;2023-05-16T12:50:43;15.93;;;10.13;;
12784;SDS011;6456;42.680;23.260;2023-05-16T12:53:11;18.73;;;9.18;;
12784;SDS011;6456;42.680;23.260;2023-05-16T12:55:39;11.63;;;8.75;;
12784;SDS011;6456;42.680;23.260;2023-05-16T12:58:07;13.00;;;9.57;;
12784;SDS011;6456;42.680;23.260;2023-05-16T13:00:34;20.70;;;14.43;;
12784;SDS011;6456;42.680;23.260;2023-05-16T13:03:03;18.08;;;13.25;;
12784;SDS011;6456;42.680;23.260;2023-05-16T13:05:31;13.90;;;11.73;;
12784;SDS011;6456;42.680;23.260;2023-05-16T13:07:58;18.27;;;11.32;;
12784;SDS011;6456;42.680;23.260;2023-05-16T13:10:26;15.57;;;9.80;;
12784;SDS011;6456;42.680;23.260;2023-05-16T13:13:10;16.13;;;9.53;;
12784;SDS011;6456;42.680;23.260;2023-05-16T13:15:41;19.70;;;10.33;;
12784;SDS011;6456;42.680;23.260;2023-05-16T13:18:14;19.70;;;10.17;;
12784;SDS011;6456;42.680;23.260;2023-05-16T13:20:41;10.73;;;8.60;;
12784;SDS011;6456;42.680;23.260;2023-05-16T13:23:08;13.13;;;9.10;;
12784;SDS011;6456;42.680;23.260;2023-05-16T13:25:35;12.80;;;9.10;;
12784;SDS011;6456;42.680;23.260;2023-05-16T13:28:02;13.10;;;9.53;;
12784;SDS011;6456;42.680;23.260;2023-05-16T13:30:29;12.57;;;9.43;;
12784;SDS011;6456;42.680;23.260;2023-05-16T13:32:56;16.67;;;10.43;;
12784;SDS011;6456;42.680;23.260;2023-05-16T13:35:24;15.43;;;10.33;;
12784;SDS011;6456;42.680;23.260;2023-05-16T13:37:51;14.93;;;10.03;;
12784;SDS011;6456;42.680;23.260;2023-05-16T13:40:18;18.93;;;9.90;;
12784;SDS011;6456;42.680;23.260;2023-05-16T13:42:45;20.03;;;10.67;;
12784;SDS011;6456;42.680;23.260;2023-05-16T13:45:13;19.90;;;10.30;;
12784;SDS011;6456;42.680;23.260;2023-05-16T13:47:40;19.57;;;11.70;;
12784;SDS011;6456;42.680;23.260;2023-05-16T13:50:07;14.80;;;10.40;;
12784;SDS011;6456;42.680;23.260;2023-05-16T13:52:36;15.20;;;10.50;;
12784;SDS011;6456;42.680;23.260;2023-05-16T13:55:04;20.13;;;11.17;;
12784;SDS011;6456;42.680;23.260;2023-05-16T13:57:32;17.10;;;10.53;;
12784;SDS011;6456;42.680;23.260;2023-05-16T13:59:59;23.07;;;11.10;;
12784;SDS011;6456;42.680;23.260;2023-05-16T14:02:26;16.73;;;11.90;;
12784;SDS011;6456;42.680;23.260;2023-05-16T14:04:53;14.87;;;10.50;;
12784;SDS011;6456;42.680;23.260;2023-05-16T14:07:19;17.03;;;10.57;;
12784;SDS011;6456;42.680;23.260;2023-05-16T14:09:48;16.83;;;11.03;;
12784;SDS011;6456;42.680;23.260;2023-05-16T14:12:14;14.90;;;10.03;;
12784;SDS011;6456;42.680;23.260;2023-05-16T14:14:41;12.67;;;11.03;;
12784;SDS011;6456;42.680;23.260;2023-05-16T14:17:08;14.37;;;10.33;;
12784;SDS011;6456;42.680;23.260;2023-05-16T14:19:35;16.57;;;11.37;;
12784;SDS011;6456;42.680;23.260;2023-05-16T14:22:02;15.23;;;11.63;;
12784;SDS011;6456;42.680;23.260;2023-05-16T14:24:29;14.27;;;11.30;;
12784;SDS011;6456;42.680;23.260;2023-05-16T14:26:57;14.23;;;10.47;;
12784;SDS011;6456;42.680;23.260;2023-05-16T14:29:24;17.27;;;11.43;;
12784;SDS011;6456;42.680;23.260;2023-05-16T14:31:51;17.10;;;11.40;;
12784;SDS011;6456;42.680;23.260;2023-05-16T14:34:18;12.80;;;11.03;;
12784;SDS011;6456;42.680;23.260;2023-05-16T14:36:46;15.67;;;11.87;;